createdAt,value
2017-12-19T00:01:26.853Z,11.00
2017-12-19T00:03:55.230Z,11.55
2017-12-19T00:06:23.621Z,13.98
2017-12-19T00:08:52.020Z,10.35
2017-12-19T00:11:21.172Z,11.77
2017-12-19T00:13:49.587Z,11.55
2017-12-19T00:16:17.959Z,11.60
2017-12-19T00:18:46.331Z,10.77
2017-12-19T00:21:14.727Z,12.75
2017-12-19T00:23:43.886Z,11.70
2017-12-19T00:26:12.690Z,11.65
2017-12-19T00:28:41.066Z,10.88
2017-12-19T00:31:09.440Z,11.55
2017-12-19T00:33:37.825Z,11.57
2017-12-19T00:36:06.202Z,11.43
2017-12-19T00:38:34.622Z,11.60
2017-12-19T00:41:02.993Z,11.73
2017-12-19T00:43:32.155Z,11.15
2017-12-19T00:46:00.561Z,12.07
2017-12-19T00:48:29.700Z,10.93
2017-12-19T00:50:58.108Z,12.48
2017-12-19T00:53:26.498Z,11.23
2017-12-19T00:55:54.865Z,10.30
2017-12-19T00:58:23.274Z,11.88
2017-12-19T01:00:52.423Z,10.88
2017-12-19T01:03:21.134Z,12.32
2017-12-19T01:05:49.505Z,13.80
2017-12-19T01:08:17.883Z,11.43
2017-12-19T01:10:46.280Z,12.63
2017-12-19T01:13:15.447Z,11.63
2017-12-19T01:15:44.320Z,11.05
2017-12-19T01:18:12.691Z,11.20
2017-12-19T01:20:41.064Z,11.10
2017-12-19T01:23:09.480Z,11.50
2017-12-19T01:25:37.859Z,12.85
2017-12-19T01:28:06.352Z,11.70
2017-12-19T01:30:34.722Z,12.30
2017-12-19T01:33:03.108Z,13.25
2017-12-19T01:35:31.548Z,12.10
2017-12-19T01:37:59.945Z,10.55
2017-12-19T01:40:29.123Z,10.75
2017-12-19T01:42:57.501Z,11.25
2017-12-19T01:45:25.867Z,11.80
2017-12-19T01:47:54.262Z,11.38
2017-12-19T01:50:22.632Z,10.75
2017-12-19T01:52:51.525Z,11.90
2017-12-19T01:55:19.890Z,11.95
2017-12-19T01:57:48.272Z,10.95
2017-12-19T02:00:16.969Z,10.95
2017-12-19T02:02:45.348Z,12.95
2017-12-19T02:05:13.963Z,10.15
2017-12-19T02:07:42.350Z,11.15
2017-12-19T02:10:10.723Z,10.60
2017-12-19T02:12:39.122Z,11.18
2017-12-19T02:15:07.517Z,12.30
2017-12-19T02:17:37.065Z,10.65
2017-12-19T02:20:05.454Z,11.80
2017-12-19T02:22:33.822Z,10.43
2017-12-19T02:25:02.224Z,10.48
2017-12-19T02:27:30.627Z,11.35
2017-12-19T02:30:00.176Z,10.70
2017-12-19T02:32:28.567Z,10.32
2017-12-19T02:34:56.942Z,10.75
2017-12-19T02:37:25.346Z,9.70
2017-12-19T02:39:53.746Z,10.90
2017-12-19T02:42:22.982Z,10.38
2017-12-19T02:44:51.374Z,10.63
2017-12-19T02:47:19.766Z,10.95
2017-12-19T02:49:48.170Z,11.90
2017-12-19T02:52:16.554Z,10.75
2017-12-19T02:54:45.064Z,10.32
2017-12-19T02:57:13.442Z,10.13
2017-12-19T02:59:41.817Z,10.50
2017-12-19T03:02:10.223Z,10.30
2017-12-19T03:04:38.598Z,10.30
2017-12-19T03:07:07.006Z,11.65
2017-12-19T03:09:35.382Z,10.85
2017-12-19T03:12:03.765Z,10.45
2017-12-19T03:14:32.954Z,10.25
2017-12-19T03:17:01.346Z,9.73
2017-12-19T03:19:29.766Z,11.27
2017-12-19T03:21:58.152Z,9.45
2017-12-19T03:24:26.530Z,10.00
2017-12-19T03:26:54.926Z,11.35
2017-12-19T03:29:23.320Z,10.60
2017-12-19T03:31:52.097Z,11.48
2017-12-19T03:34:20.475Z,10.55
2017-12-19T03:36:48.848Z,10.60
2017-12-19T03:39:17.261Z,12.05
2017-12-19T03:41:45.654Z,11.75
2017-12-19T03:44:14.177Z,12.40
2017-12-19T03:46:42.559Z,9.65
2017-12-19T03:49:10.948Z,10.60
2017-12-19T03:51:39.367Z,12.02
2017-12-19T03:54:07.751Z,10.65
2017-12-19T03:56:36.258Z,11.35
2017-12-19T03:59:04.639Z,10.07
2017-12-19T04:01:33.017Z,11.38
2017-12-19T04:04:01.424Z,11.30
2017-12-19T04:06:29.802Z,11.27
2017-12-19T04:08:58.229Z,12.02
2017-12-19T04:11:26.653Z,12.55
2017-12-19T04:13:55.034Z,11.68
2017-12-19T04:16:23.450Z,11.52
2017-12-19T04:18:51.850Z,11.88
2017-12-19T04:21:21.118Z,11.55
2017-12-19T04:23:49.503Z,10.43
2017-12-19T04:26:17.893Z,10.82
2017-12-19T04:28:46.948Z,12.07
2017-12-19T04:31:15.329Z,11.95
2017-12-19T04:33:43.761Z,12.65
2017-12-19T04:36:12.909Z,11.38
2017-12-19T04:38:41.297Z,11.50
2017-12-19T04:41:09.703Z,12.35
2017-12-19T04:43:38.082Z,10.88
2017-12-19T04:46:06.543Z,10.93
2017-12-19T04:48:34.924Z,11.50
2017-12-19T04:51:03.303Z,10.00
2017-12-19T04:53:31.766Z,12.27
2017-12-19T04:56:00.136Z,10.27
2017-12-19T04:58:28.601Z,11.52
2017-12-19T05:00:56.979Z,11.88
2017-12-19T05:03:25.352Z,11.75
2017-12-19T05:05:53.758Z,11.65
2017-12-19T05:08:22.148Z,10.73
2017-12-19T05:10:50.901Z,11.25
2017-12-19T05:13:19.279Z,11.23
2017-12-19T05:15:47.651Z,11.98
2017-12-19T05:18:16.043Z,11.23
2017-12-19T05:20:44.415Z,12.35
2017-12-19T05:23:12.858Z,13.00
2017-12-19T05:25:42.006Z,12.82
2017-12-19T05:28:10.381Z,11.90
2017-12-19T05:30:38.790Z,11.82
2017-12-19T05:33:07.171Z,11.40
2017-12-19T05:35:35.692Z,11.90
2017-12-19T05:38:04.066Z,11.77
2017-12-19T05:40:33.210Z,11.12
2017-12-19T05:43:01.601Z,11.10
2017-12-19T05:45:29.996Z,12.15
2017-12-19T05:47:58.509Z,11.40
2017-12-19T05:50:26.877Z,11.00
2017-12-19T05:52:56.067Z,12.80
2017-12-19T05:55:25.228Z,10.40
2017-12-19T05:57:53.601Z,12.60
2017-12-19T06:00:22.015Z,13.45
2017-12-19T06:02:51.301Z,42.17
2017-12-19T06:05:19.699Z,17.35
2017-12-19T06:07:48.890Z,12.43
2017-12-19T06:10:18.052Z,11.15
2017-12-19T06:12:46.818Z,11.52
2017-12-19T06:15:15.230Z,12.15
2017-12-19T06:17:43.603Z,10.50
2017-12-19T06:20:11.999Z,11.77
2017-12-19T06:22:40.390Z,25.45
2017-12-19T06:25:09.577Z,21.85
2017-12-19T06:27:37.968Z,16.00
2017-12-19T06:30:07.128Z,11.55
2017-12-19T06:32:35.551Z,10.90
2017-12-19T06:35:03.937Z,11.48
2017-12-19T06:37:32.487Z,11.55
2017-12-19T06:40:08.402Z,11.60
2017-12-19T06:42:36.819Z,10.73
2017-12-19T06:45:05.205Z,12.23
2017-12-19T06:47:33.651Z,11.07
2017-12-19T06:50:02.063Z,12.27
2017-12-19T06:52:30.520Z,12.25
2017-12-19T06:54:59.027Z,11.18
2017-12-19T06:57:27.427Z,10.80
2017-12-19T06:59:56.579Z,10.40
2017-12-19T07:02:24.994Z,12.23
2017-12-19T07:04:54.135Z,12.10
2017-12-19T07:07:22.987Z,12.05
2017-12-19T07:09:52.186Z,12.18
2017-12-19T07:12:21.338Z,11.68
2017-12-19T07:14:49.741Z,10.52
2017-12-19T07:17:18.184Z,11.75
2017-12-19T07:19:46.655Z,10.65
2017-12-19T07:22:15.085Z,10.25
2017-12-19T07:24:44.270Z,11.68
2017-12-19T07:27:12.689Z,11.93
2017-12-19T07:29:41.084Z,12.93
2017-12-19T07:32:09.802Z,15.25
2017-12-19T07:34:38.174Z,11.75
2017-12-19T07:37:06.545Z,13.38
2017-12-19T07:39:34.946Z,12.40
2017-12-19T07:42:03.331Z,11.25
2017-12-19T07:44:31.735Z,12.00
2017-12-19T07:47:00.112Z,12.35
2017-12-19T07:49:28.475Z,11.12
2017-12-19T07:51:56.889Z,12.18
2017-12-19T07:54:25.394Z,13.00
2017-12-19T07:56:54.072Z,11.70
2017-12-19T07:59:22.442Z,12.45
2017-12-19T08:01:50.849Z,12.05
2017-12-19T08:04:19.277Z,12.40
2017-12-19T08:06:48.411Z,12.00
2017-12-19T08:09:16.822Z,17.50
2017-12-19T08:11:45.230Z,11.40
2017-12-19T08:14:13.602Z,11.30
2017-12-19T08:16:42.770Z,11.57
2017-12-19T08:19:11.149Z,11.30
2017-12-19T08:21:39.566Z,13.05
2017-12-19T08:24:07.933Z,10.68
2017-12-19T08:26:37.178Z,11.70
2017-12-19T08:29:05.578Z,11.02
2017-12-19T08:31:33.944Z,11.32
2017-12-19T08:34:03.156Z,11.32
2017-12-19T08:36:31.565Z,12.63
2017-12-19T08:39:00.707Z,11.98
2017-12-19T08:41:29.121Z,12.55
2017-12-19T08:43:57.491Z,13.20
2017-12-19T08:46:25.985Z,12.02
2017-12-19T08:48:54.366Z,12.43
2017-12-19T08:51:22.752Z,12.80
2017-12-19T08:53:51.151Z,12.27
2017-12-19T08:56:19.526Z,12.57
2017-12-19T08:58:48.738Z,12.48
2017-12-19T09:01:17.098Z,13.62
2017-12-19T09:03:46.252Z,13.35
2017-12-19T09:06:14.654Z,14.90
2017-12-19T09:08:43.798Z,14.27
2017-12-19T09:11:12.252Z,13.40
2017-12-19T09:13:40.631Z,14.93
2017-12-19T09:16:09.004Z,14.82
2017-12-19T09:18:38.170Z,16.30
2017-12-19T09:21:06.545Z,17.27
2017-12-19T09:23:35.047Z,16.75
2017-12-19T09:26:03.416Z,17.85
2017-12-19T09:28:31.792Z,20.98
2017-12-19T09:31:00.187Z,19.58
2017-12-19T09:33:29.436Z,17.80
2017-12-19T09:35:57.967Z,18.92
2017-12-19T09:38:27.123Z,18.15
2017-12-19T09:40:55.494Z,20.15
2017-12-19T09:43:23.885Z,19.48
2017-12-19T09:45:52.262Z,20.45
2017-12-19T09:48:20.666Z,20.75
2017-12-19T09:50:49.042Z,20.37
2017-12-19T09:53:17.481Z,21.20
2017-12-19T09:55:45.885Z,23.95
2017-12-19T09:58:14.254Z,21.92
2017-12-19T10:00:42.703Z,22.77
2017-12-19T10:03:11.092Z,22.60
2017-12-19T10:05:39.458Z,22.33
2017-12-19T10:08:07.862Z,24.50
2017-12-19T10:10:36.235Z,22.75
2017-12-19T10:13:04.670Z,23.27
2017-12-19T10:15:33.819Z,23.05
2017-12-19T10:18:02.203Z,26.30
2017-12-19T10:20:30.602Z,25.95
2017-12-19T10:22:58.971Z,24.52
2017-12-19T10:25:27.421Z,23.73
2017-12-19T10:27:55.796Z,24.87
2017-12-19T10:30:24.169Z,25.12
2017-12-19T10:32:52.573Z,25.67
2017-12-19T10:35:21.002Z,23.77
2017-12-19T10:37:50.548Z,25.37
2017-12-19T10:40:18.933Z,23.73
2017-12-19T10:42:47.310Z,25.98
2017-12-19T10:45:15.707Z,23.30
2017-12-19T10:47:44.091Z,24.85
2017-12-19T10:50:12.601Z,25.62
2017-12-19T10:52:41.744Z,24.15
2017-12-19T10:55:10.122Z,23.90
2017-12-19T10:57:38.518Z,24.52
2017-12-19T11:00:06.906Z,22.98
2017-12-19T11:02:35.390Z,23.05
2017-12-19T11:05:03.777Z,23.08
2017-12-19T11:07:32.915Z,22.87
2017-12-19T11:10:01.312Z,20.33
2017-12-19T11:12:29.683Z,21.75
2017-12-19T11:14:58.549Z,22.85
2017-12-19T11:17:26.919Z,19.60
2017-12-19T11:19:56.056Z,23.75
2017-12-19T11:22:24.469Z,23.65
2017-12-19T11:24:52.895Z,23.27
2017-12-19T11:27:21.331Z,22.23
2017-12-19T11:29:49.754Z,22.92
2017-12-19T11:32:18.161Z,25.02
2017-12-19T11:34:46.585Z,23.45
2017-12-19T11:37:15.782Z,24.12
2017-12-19T11:39:44.184Z,24.12
2017-12-19T11:42:12.568Z,24.58
2017-12-19T11:44:40.968Z,23.05
2017-12-19T11:47:09.354Z,23.23
2017-12-19T11:49:37.726Z,25.52
2017-12-19T11:52:06.533Z,24.23
2017-12-19T11:54:34.909Z,24.80
2017-12-19T11:57:03.312Z,24.42
2017-12-19T11:59:31.705Z,25.95
2017-12-19T12:02:00.074Z,26.65
2017-12-19T12:04:29.349Z,26.73
2017-12-19T12:06:57.729Z,26.98
2017-12-19T12:09:26.098Z,27.42
2017-12-19T12:11:54.509Z,27.25
2017-12-19T12:14:22.906Z,25.70
2017-12-19T12:16:51.378Z,28.67
2017-12-19T12:19:19.770Z,28.02
2017-12-19T12:21:48.159Z,25.83
2017-12-19T12:24:16.591Z,26.75
2017-12-19T12:26:44.969Z,28.25
2017-12-19T12:29:13.528Z,28.77
2017-12-19T12:31:41.918Z,30.70
2017-12-19T12:34:10.290Z,29.42
2017-12-19T12:36:38.708Z,29.15
2017-12-19T12:39:07.879Z,28.70
2017-12-19T12:41:36.295Z,29.55
2017-12-19T12:44:04.718Z,26.05
2017-12-19T12:46:33.123Z,25.15
2017-12-19T12:49:01.528Z,25.33
2017-12-19T12:51:29.895Z,23.27
2017-12-19T12:53:59.342Z,24.90
2017-12-19T12:56:27.716Z,24.05
2017-12-19T12:58:56.103Z,23.50
2017-12-19T13:01:24.497Z,25.27
2017-12-19T13:03:52.888Z,27.08
2017-12-19T13:06:21.449Z,27.35
2017-12-19T13:08:49.828Z,26.30
2017-12-19T13:11:18.202Z,25.73
2017-12-19T13:13:46.611Z,26.25
2017-12-19T13:16:14.992Z,26.52
2017-12-19T13:18:43.423Z,28.02
2017-12-19T13:21:11.795Z,24.92
2017-12-19T13:23:40.166Z,26.17
2017-12-19T13:26:08.570Z,26.35
2017-12-19T13:28:36.955Z,24.50
2017-12-19T13:31:05.454Z,27.05
2017-12-19T13:33:33.835Z,28.17
2017-12-19T13:36:02.208Z,27.67
2017-12-19T13:38:30.641Z,27.42
2017-12-19T13:40:59.082Z,29.20
2017-12-19T13:43:28.648Z,31.20
2017-12-19T13:45:57.028Z,28.70
2017-12-19T13:48:25.399Z,28.77
2017-12-19T13:50:53.796Z,29.55
2017-12-19T13:53:22.154Z,31.45
2017-12-19T13:55:50.553Z,33.50
2017-12-19T13:58:18.978Z,32.50
2017-12-19T14:00:48.158Z,35.53
2017-12-19T14:03:16.555Z,33.70
2017-12-19T14:05:45.686Z,32.22
2017-12-19T14:08:14.111Z,32.08
2017-12-19T14:10:42.504Z,33.55
2017-12-19T14:13:10.931Z,35.47
2017-12-19T14:15:39.335Z,31.05
2017-12-19T14:18:07.722Z,31.87
2017-12-19T14:20:36.146Z,30.27
2017-12-19T14:23:04.534Z,30.42
2017-12-19T14:25:33.027Z,31.17
2017-12-19T14:28:01.624Z,33.15
2017-12-19T14:30:30.162Z,34.40
2017-12-19T14:32:58.778Z,32.03
2017-12-19T14:35:27.141Z,30.75
2017-12-19T14:37:55.513Z,33.53
2017-12-19T14:40:23.911Z,32.83
2017-12-19T14:42:52.325Z,32.63
2017-12-19T14:45:21.002Z,33.20
2017-12-19T14:47:49.379Z,32.45
2017-12-19T14:50:17.762Z,32.30
2017-12-19T14:52:46.176Z,31.73
2017-12-19T14:55:15.339Z,34.95
2017-12-19T14:57:43.793Z,33.13
2017-12-19T15:00:12.197Z,32.38
2017-12-19T15:02:40.585Z,32.38
2017-12-19T15:05:08.992Z,33.42
2017-12-19T15:07:37.396Z,34.00
2017-12-19T15:10:05.883Z,33.60
2017-12-19T15:12:34.259Z,32.33
2017-12-19T15:15:02.971Z,34.88
2017-12-19T15:17:31.571Z,33.53
2017-12-19T15:20:00.046Z,32.88
2017-12-19T15:22:28.810Z,31.62
2017-12-19T15:24:57.202Z,33.78
2017-12-19T15:27:25.604Z,37.00
2017-12-19T15:29:55.074Z,31.85
2017-12-19T15:32:23.675Z,32.70
2017-12-19T15:34:52.217Z,32.25
2017-12-19T15:37:20.662Z,35.90
2017-12-19T15:39:49.820Z,32.85
2017-12-19T15:42:18.379Z,33.33
2017-12-19T15:44:46.756Z,33.15
2017-12-19T15:47:15.404Z,32.88
2017-12-19T15:49:44.664Z,31.77
2017-12-19T15:52:13.039Z,33.58
2017-12-19T15:54:42.237Z,30.50
2017-12-19T15:57:10.637Z,32.05
2017-12-19T15:59:39.082Z,35.15
2017-12-19T16:02:07.462Z,31.37
2017-12-19T16:04:35.869Z,33.25
2017-12-19T16:07:04.271Z,30.27
2017-12-19T16:09:33.407Z,35.33
2017-12-19T16:12:02.168Z,31.85
2017-12-19T16:14:30.539Z,32.55
2017-12-19T16:16:59.673Z,31.45
2017-12-19T16:19:28.078Z,33.63
2017-12-19T16:21:57.217Z,33.03
2017-12-19T16:24:26.465Z,31.40
2017-12-19T16:26:54.855Z,32.00
2017-12-19T16:29:23.258Z,35.55
2017-12-19T16:31:52.470Z,33.72
2017-12-19T16:34:21.675Z,33.38
2017-12-19T16:36:50.176Z,35.70
2017-12-19T16:39:18.580Z,34.03
2017-12-19T16:41:46.983Z,34.45
2017-12-19T16:44:15.653Z,34.80
2017-12-19T16:46:44.179Z,34.78
2017-12-19T16:49:12.555Z,35.47
2017-12-19T16:51:40.967Z,34.28
2017-12-19T16:54:09.331Z,35.05
2017-12-19T16:56:37.706Z,37.85
2017-12-19T16:59:06.102Z,36.28
2017-12-19T17:01:34.542Z,36.08
2017-12-19T17:04:05.101Z,35.60
2017-12-19T17:06:34.489Z,35.53
2017-12-19T17:09:05.966Z,35.10
2017-12-19T17:11:34.448Z,34.83
2017-12-19T17:14:02.819Z,35.72
2017-12-19T17:16:31.277Z,38.45
2017-12-19T17:18:59.741Z,40.72
2017-12-19T17:21:29.036Z,38.78
2017-12-19T17:23:57.511Z,42.78
2017-12-19T17:26:26.655Z,36.50
2017-12-19T17:28:55.052Z,34.90
2017-12-19T17:31:23.422Z,38.88
2017-12-19T17:33:52.348Z,38.70
2017-12-19T17:36:20.750Z,37.47
2017-12-19T17:38:49.143Z,36.47
2017-12-19T17:41:17.599Z,39.42
2017-12-19T17:43:46.743Z,46.35
2017-12-19T17:46:15.629Z,44.60
2017-12-19T17:48:44.010Z,42.20
2017-12-19T17:51:12.382Z,38.10
2017-12-19T17:53:40.799Z,38.60
2017-12-19T17:56:09.168Z,39.22
2017-12-19T17:58:37.835Z,38.42
2017-12-19T18:01:06.321Z,41.37
2017-12-19T18:03:34.697Z,38.60
2017-12-19T18:06:03.127Z,40.12
2017-12-19T18:08:32.262Z,63.05
2017-12-19T18:11:00.858Z,39.55
2017-12-19T18:13:29.263Z,38.60
2017-12-19T18:15:57.698Z,35.15
2017-12-19T18:18:26.083Z,37.00
2017-12-19T18:20:54.590Z,37.10
2017-12-19T18:23:23.136Z,38.17
2017-12-19T18:25:51.528Z,37.03
2017-12-19T18:28:20.218Z,32.50
2017-12-19T18:30:48.689Z,35.90
2017-12-19T18:33:17.260Z,36.00
2017-12-19T18:35:46.175Z,34.08
2017-12-19T18:38:14.802Z,34.05
2017-12-19T18:40:44.150Z,34.13
2017-12-19T18:43:12.888Z,36.35
2017-12-19T18:45:42.578Z,37.25
2017-12-19T18:48:11.289Z,33.58
2017-12-19T18:50:40.522Z,35.33
2017-12-19T18:53:09.258Z,34.80
2017-12-19T18:55:37.743Z,33.10
2017-12-19T18:58:06.177Z,34.60
2017-12-19T19:00:34.923Z,32.60
2017-12-19T19:03:04.157Z,33.45
2017-12-19T19:05:32.696Z,34.33
2017-12-19T19:08:01.192Z,32.63
2017-12-19T19:10:30.271Z,35.45
2017-12-19T19:12:58.669Z,29.83
2017-12-19T19:15:27.894Z,33.42
2017-12-19T19:17:56.360Z,34.17
2017-12-19T19:20:24.750Z,33.03
2017-12-19T19:22:53.442Z,32.25
2017-12-19T19:25:21.835Z,32.85
2017-12-19T19:27:50.273Z,34.50
2017-12-19T19:30:19.581Z,35.50
2017-12-19T19:32:47.999Z,33.58
2017-12-19T19:35:16.983Z,33.42
2017-12-19T19:37:46.269Z,33.25
2017-12-19T19:40:14.700Z,33.35
2017-12-19T19:42:43.514Z,32.08
2017-12-19T19:45:12.323Z,30.20
2017-12-19T19:47:41.464Z,31.90
2017-12-19T19:50:10.982Z,30.05
2017-12-19T19:52:39.884Z,31.37
2017-12-19T19:55:08.796Z,32.20
2017-12-19T19:57:37.618Z,31.40
2017-12-19T20:00:06.812Z,31.15
2017-12-19T20:02:36.451Z,30.88
2017-12-19T20:05:05.250Z,31.62
2017-12-19T20:07:34.444Z,30.25
2017-12-19T20:10:03.340Z,29.80
2017-12-19T20:12:32.495Z,31.33
2017-12-19T20:15:02.299Z,29.23
2017-12-19T20:17:32.187Z,31.98
2017-12-19T20:20:01.148Z,28.90
2017-12-19T20:22:29.967Z,29.50
2017-12-19T20:24:59.899Z,30.08
2017-12-19T20:27:28.779Z,30.08
2017-12-19T20:29:57.730Z,28.92
2017-12-19T20:32:26.590Z,30.95
2017-12-19T20:34:56.315Z,29.00
2017-12-19T20:37:26.762Z,30.77
2017-12-19T20:39:55.901Z,35.33
2017-12-19T20:42:24.990Z,28.80
2017-12-19T20:44:53.903Z,29.33
2017-12-19T20:47:24.138Z,31.98
2017-12-19T20:49:54.899Z,31.60
2017-12-19T20:52:23.854Z,32.83
2017-12-19T20:54:52.839Z,31.75
2017-12-19T20:57:22.515Z,32.47
2017-12-19T20:59:51.724Z,30.58
2017-12-19T21:02:20.744Z,33.03
2017-12-19T21:04:49.512Z,33.33
2017-12-19T21:07:18.173Z,33.38
2017-12-19T21:09:47.762Z,34.25
2017-12-19T21:12:16.870Z,33.70
2017-12-19T21:14:45.658Z,31.20
2017-12-19T21:17:14.922Z,33.05
2017-12-19T21:19:44.080Z,38.17
2017-12-19T21:22:12.940Z,42.10
2017-12-19T21:24:41.982Z,41.25
2017-12-19T21:27:10.966Z,40.90
2017-12-19T21:29:39.719Z,40.92
2017-12-19T21:32:08.557Z,41.33
2017-12-19T21:34:37.309Z,38.83
2017-12-19T21:37:06.934Z,35.45
2017-12-19T21:39:35.672Z,36.40
2017-12-19T21:42:04.084Z,35.20
2017-12-19T21:44:32.799Z,37.72
2017-12-19T21:47:01.314Z,38.17
2017-12-19T21:49:30.397Z,38.67
2017-12-19T21:51:59.069Z,41.55
2017-12-19T21:54:28.512Z,40.03
2017-12-19T21:56:57.473Z,39.45
2017-12-19T21:59:25.939Z,42.28
2017-12-19T22:01:54.478Z,40.90
2017-12-19T22:04:23.735Z,41.65
2017-12-19T22:06:52.351Z,41.20
2017-12-19T22:09:20.792Z,38.03
2017-12-19T22:11:49.231Z,41.40
2017-12-19T22:14:17.673Z,42.83
2017-12-19T22:16:46.049Z,43.42
2017-12-19T22:19:14.423Z,41.35
2017-12-19T22:21:42.816Z,44.30
2017-12-19T22:24:11.956Z,45.28
2017-12-19T22:26:40.799Z,45.83
2017-12-19T22:29:09.174Z,44.03
2017-12-19T22:31:37.556Z,44.95
2017-12-19T22:34:06.194Z,44.53
2017-12-19T22:36:34.982Z,47.65
2017-12-19T22:39:03.834Z,46.03
2017-12-19T22:41:33.261Z,46.67
2017-12-19T22:44:01.674Z,44.55
2017-12-19T22:46:30.073Z,43.50
2017-12-19T22:48:58.472Z,45.50
2017-12-19T22:51:27.010Z,43.15
2017-12-19T22:53:55.431Z,44.10
2017-12-19T22:56:24.557Z,46.58
2017-12-19T22:58:52.980Z,46.58
2017-12-19T23:01:21.352Z,44.78
2017-12-19T23:03:49.736Z,41.30
2017-12-19T23:06:18.128Z,40.55
2017-12-19T23:08:46.525Z,43.20
2017-12-19T23:11:15.696Z,40.38
2017-12-19T23:13:44.092Z,39.72
2017-12-19T23:16:13.245Z,39.45
2017-12-19T23:18:41.640Z,39.08
2017-12-19T23:21:10.893Z,39.53
2017-12-19T23:23:39.321Z,39.85
2017-12-19T23:26:07.708Z,39.33
2017-12-19T23:28:36.874Z,39.33
2017-12-19T23:31:05.274Z,39.20
2017-12-19T23:33:33.648Z,39.67
2017-12-19T23:36:03.134Z,39.00
2017-12-19T23:38:31.514Z,36.70
2017-12-19T23:40:59.903Z,38.63
2017-12-19T23:43:29.152Z,38.83
2017-12-19T23:45:58.588Z,39.88
2017-12-19T23:48:27.082Z,39.15
2017-12-19T23:50:55.458Z,39.83
2017-12-19T23:53:23.828Z,36.58
2017-12-19T23:55:52.219Z,37.08
2017-12-19T23:58:20.587Z,35.92
